createdAt,value
2019-02-27T00:00:15.009Z,19.90
2019-02-27T00:01:17.064Z,18.70
2019-02-27T00:02:14.891Z,19.10
2019-02-27T00:03:14.778Z,19.30
2019-02-27T00:04:14.768Z,19.00
2019-02-27T00:05:14.734Z,18.70
2019-02-27T00:06:15.835Z,18.60
2019-02-27T00:07:14.646Z,19.20
2019-02-27T00:08:14.524Z,18.30
2019-02-27T00:09:14.528Z,18.70
2019-02-27T00:10:14.410Z,17.80
2019-02-27T00:11:14.408Z,19.10
2019-02-27T00:12:16.864Z,18.30
2019-02-27T00:13:14.288Z,19.10
2019-02-27T00:14:14.289Z,18.00
2019-02-27T00:15:14.170Z,17.50
2019-02-27T00:16:14.166Z,17.90
2019-02-27T00:17:15.115Z,17.40
2019-02-27T00:18:14.046Z,17.90
2019-02-27T00:19:14.045Z,16.70
2019-02-27T00:20:13.926Z,18.10
2019-02-27T00:21:13.923Z,17.60
2019-02-27T00:22:17.269Z,17.10
2019-02-27T00:23:13.805Z,16.60
2019-02-27T00:24:13.805Z,17.20
2019-02-27T00:25:13.684Z,17.80
2019-02-27T00:26:13.682Z,17.30
2019-02-27T00:27:15.225Z,17.50
2019-02-27T00:28:13.560Z,18.00
2019-02-27T00:29:13.565Z,17.30
2019-02-27T00:30:13.440Z,17.30
2019-02-27T00:31:13.441Z,17.50
2019-02-27T00:32:15.777Z,17.60
2019-02-27T00:33:13.321Z,17.20
2019-02-27T00:34:13.321Z,17.40
2019-02-27T00:35:13.199Z,17.40
2019-02-27T00:36:13.202Z,17.80
2019-02-27T00:37:13.199Z,17.70
2019-02-27T00:38:13.081Z,17.70
2019-02-27T00:39:13.081Z,17.90
2019-02-27T00:40:12.962Z,18.30
2019-02-27T00:41:13.102Z,17.70
2019-02-27T00:42:12.922Z,17.70
2019-02-27T00:43:12.840Z,17.90
2019-02-27T00:44:12.838Z,17.20
2019-02-27T00:45:12.717Z,17.10
2019-02-27T00:46:13.222Z,17.00
2019-02-27T00:47:12.680Z,17.20
2019-02-27T00:48:12.607Z,18.10
2019-02-27T00:49:12.595Z,17.40
2019-02-27T00:50:12.476Z,17.20
2019-02-27T00:51:12.922Z,17.40
2019-02-27T00:52:12.361Z,17.00
2019-02-27T00:53:12.357Z,17.40
2019-02-27T00:54:12.356Z,16.90
2019-02-27T00:55:12.248Z,17.70
2019-02-27T00:56:12.916Z,18.60
2019-02-27T00:57:12.114Z,18.20
2019-02-27T00:58:12.119Z,19.00
2019-02-27T00:59:12.125Z,17.40
2019-02-27T01:00:13.558Z,17.70
2019-02-27T01:01:12.579Z,17.60
2019-02-27T01:02:11.873Z,17.30
2019-02-27T01:03:11.876Z,17.10
2019-02-27T01:04:11.877Z,17.90
2019-02-27T01:05:11.757Z,17.80
2019-02-27T01:06:12.170Z,17.70
2019-02-27T01:07:11.637Z,17.60
2019-02-27T01:08:11.632Z,18.10
2019-02-27T01:09:11.595Z,18.20
2019-02-27T01:10:12.258Z,17.90
2019-02-27T01:11:11.514Z,18.00
2019-02-27T01:12:11.395Z,18.60
2019-02-27T01:13:11.400Z,18.60
2019-02-27T01:14:11.356Z,18.20
2019-02-27T01:15:11.339Z,17.80
2019-02-27T01:16:11.270Z,17.70
2019-02-27T01:17:11.152Z,17.80
2019-02-27T01:18:11.153Z,18.20
2019-02-27T01:19:11.035Z,18.90
2019-02-27T01:20:11.954Z,17.80
2019-02-27T01:21:11.070Z,17.70
2019-02-27T01:22:10.911Z,19.10
2019-02-27T01:23:11.594Z,18.10
2019-02-27T01:24:10.791Z,17.10
2019-02-27T01:25:10.791Z,18.20
2019-02-27T01:26:10.790Z,17.90
2019-02-27T01:27:10.673Z,17.00
2019-02-27T01:28:11.584Z,17.90
2019-02-27T01:29:10.549Z,18.70
2019-02-27T01:30:10.549Z,17.80
2019-02-27T01:31:10.515Z,18.30
2019-02-27T01:32:10.432Z,17.80
2019-02-27T01:33:10.429Z,17.90
2019-02-27T01:34:11.325Z,17.00
2019-02-27T01:35:10.310Z,17.90
2019-02-27T01:36:10.187Z,17.80
2019-02-27T01:37:10.191Z,17.80
2019-02-27T01:38:10.186Z,18.90
2019-02-27T01:39:11.358Z,17.00
2019-02-27T01:40:10.076Z,18.00
2019-02-27T01:41:09.947Z,17.90
2019-02-27T01:42:09.947Z,18.20
2019-02-27T01:43:09.950Z,17.20
2019-02-27T01:44:11.185Z,17.30
2019-02-27T01:45:09.827Z,18.30
2019-02-27T01:46:09.704Z,17.70
2019-02-27T01:47:09.706Z,19.20
2019-02-27T01:48:09.853Z,17.50
2019-02-27T01:49:09.585Z,16.90
2019-02-27T01:50:09.583Z,17.80
2019-02-27T01:51:09.471Z,17.80
2019-02-27T01:52:09.462Z,17.80
2019-02-27T01:53:09.459Z,16.80
2019-02-27T01:54:09.359Z,17.80
2019-02-27T01:55:09.345Z,16.40
2019-02-27T01:56:09.225Z,16.70
2019-02-27T01:57:09.223Z,17.90
2019-02-27T01:58:10.113Z,17.10
2019-02-27T01:59:09.106Z,16.30
2019-02-27T02:00:09.104Z,17.50
2019-02-27T02:01:08.983Z,17.00
2019-02-27T02:02:08.985Z,17.70
2019-02-27T02:03:11.131Z,16.90
2019-02-27T02:04:08.863Z,17.90
2019-02-27T02:05:08.863Z,16.90
2019-02-27T02:06:08.743Z,16.40
2019-02-27T02:07:08.741Z,16.80
2019-02-27T02:08:13.606Z,16.00
2019-02-27T02:09:08.625Z,16.30
2019-02-27T02:10:08.583Z,16.30
2019-02-27T02:11:08.499Z,16.40
2019-02-27T02:12:08.804Z,16.30
2019-02-27T02:13:08.378Z,16.90
2019-02-27T02:14:08.381Z,16.20
2019-02-27T02:15:08.262Z,16.10
2019-02-27T02:16:08.258Z,16.30
2019-02-27T02:17:08.267Z,16.30
2019-02-27T02:18:08.137Z,15.90
2019-02-27T02:19:08.142Z,15.70
2019-02-27T02:20:08.018Z,16.60
2019-02-27T02:21:08.018Z,16.30
2019-02-27T02:22:08.913Z,15.60
2019-02-27T02:23:07.899Z,16.70
2019-02-27T02:24:07.903Z,17.20
2019-02-27T02:25:07.779Z,16.30
2019-02-27T02:26:07.778Z,16.80
2019-02-27T02:27:08.756Z,17.10
2019-02-27T02:28:07.658Z,17.50
2019-02-27T02:29:07.658Z,16.10
2019-02-27T02:30:07.545Z,16.20
2019-02-27T02:31:07.540Z,16.40
2019-02-27T02:32:07.415Z,15.50
2019-02-27T02:33:07.416Z,16.60
2019-02-27T02:34:07.416Z,15.80
2019-02-27T02:35:07.295Z,15.10
2019-02-27T02:36:07.301Z,15.50
2019-02-27T02:37:07.178Z,17.00
2019-02-27T02:38:12.076Z,20.10
2019-02-27T02:39:07.180Z,23.10
2019-02-27T02:40:07.058Z,22.30
2019-02-27T02:41:08.414Z,25.60
2019-02-27T02:42:06.937Z,24.30
2019-02-27T02:43:06.956Z,22.80
2019-02-27T02:44:06.898Z,23.90
2019-02-27T02:45:06.815Z,23.60
2019-02-27T02:46:08.908Z,20.40
2019-02-27T02:47:06.695Z,20.10
2019-02-27T02:48:06.694Z,18.10
2019-02-27T02:49:08.301Z,18.60
2019-02-27T02:50:06.572Z,18.90
2019-02-27T02:51:06.575Z,18.50
2019-02-27T02:52:06.458Z,21.00
2019-02-27T02:53:06.452Z,25.20
2019-02-27T02:54:06.334Z,22.80
2019-02-27T02:55:12.156Z,23.30
2019-02-27T02:56:06.341Z,21.10
2019-02-27T02:57:06.212Z,18.20
2019-02-27T02:58:07.906Z,16.90
2019-02-27T02:59:06.092Z,16.80
2019-02-27T03:00:06.091Z,17.30
2019-02-27T03:01:05.972Z,16.50
2019-02-27T03:02:05.975Z,16.60
2019-02-27T03:03:05.972Z,16.10
2019-02-27T03:04:05.850Z,16.10
2019-02-27T03:05:05.849Z,15.40
2019-02-27T03:06:05.728Z,15.70
2019-02-27T03:07:07.168Z,15.90
2019-02-27T03:08:05.728Z,15.50
2019-02-27T03:09:05.620Z,15.60
2019-02-27T03:10:07.450Z,15.30
2019-02-27T03:11:05.489Z,14.50
2019-02-27T03:12:05.492Z,14.70
2019-02-27T03:13:07.102Z,14.10
2019-02-27T03:14:05.371Z,14.20
2019-02-27T03:15:05.366Z,14.90
2019-02-27T03:16:05.932Z,14.80
2019-02-27T03:17:05.252Z,14.50
2019-02-27T03:18:05.131Z,14.80
2019-02-27T03:19:06.427Z,15.40
2019-02-27T03:20:05.128Z,14.10
2019-02-27T03:21:05.010Z,14.30
2019-02-27T03:22:05.010Z,14.90
2019-02-27T03:23:04.885Z,14.50
2019-02-27T03:24:04.886Z,14.90
2019-02-27T03:25:05.550Z,14.60
2019-02-27T03:26:04.768Z,14.70
2019-02-27T03:27:04.765Z,15.00
2019-02-27T03:28:04.988Z,13.70
2019-02-27T03:29:04.647Z,14.50
2019-02-27T03:30:04.529Z,13.60
2019-02-27T03:31:04.538Z,13.80
2019-02-27T03:32:04.531Z,14.00
2019-02-27T03:33:04.404Z,13.90
2019-02-27T03:34:08.158Z,15.00
2019-02-27T03:35:04.292Z,13.50
2019-02-27T03:36:04.443Z,14.50
2019-02-27T03:37:04.285Z,13.70
2019-02-27T03:38:04.166Z,14.60
2019-02-27T03:39:04.165Z,13.60
2019-02-27T03:40:04.043Z,14.20
2019-02-27T03:41:04.041Z,13.70
2019-02-27T03:42:04.013Z,13.70
2019-02-27T03:43:10.031Z,14.30
2019-02-27T03:44:03.935Z,13.80
2019-02-27T03:45:03.805Z,13.70
2019-02-27T03:46:06.222Z,14.90
2019-02-27T03:47:03.692Z,13.50
2019-02-27T03:48:03.690Z,13.50
2019-02-27T03:49:04.601Z,14.50
2019-02-27T03:50:03.558Z,13.30
2019-02-27T03:51:03.604Z,13.60
2019-02-27T03:52:03.445Z,13.90
2019-02-27T03:53:03.455Z,13.00
2019-02-27T03:54:03.446Z,13.60
2019-02-27T03:55:03.317Z,14.00
2019-02-27T03:56:08.692Z,13.80
2019-02-27T03:57:03.438Z,14.50
2019-02-27T03:58:03.646Z,14.00
2019-02-27T03:59:06.237Z,14.70
2019-02-27T04:00:04.146Z,14.50
2019-02-27T04:01:03.451Z,14.10
2019-02-27T04:02:06.296Z,14.00
2019-02-27T04:03:03.308Z,13.20
2019-02-27T04:04:03.170Z,14.10
2019-02-27T04:05:07.138Z,13.20
2019-02-27T04:06:03.419Z,14.90
2019-02-27T04:07:02.840Z,14.80
2019-02-27T04:08:07.086Z,13.60
2019-02-27T04:09:02.599Z,14.80
2019-02-27T04:10:02.593Z,14.90
2019-02-27T04:11:05.625Z,15.00
2019-02-27T04:12:02.476Z,14.10
2019-02-27T04:13:02.475Z,14.50
2019-02-27T04:14:05.024Z,13.80
2019-02-27T04:15:02.353Z,14.10
2019-02-27T04:16:02.247Z,13.40
2019-02-27T04:17:06.187Z,13.70
2019-02-27T04:18:02.234Z,14.10
2019-02-27T04:19:04.510Z,13.50
2019-02-27T04:20:02.117Z,13.90
2019-02-27T04:21:02.009Z,14.90
2019-02-27T04:22:02.080Z,15.00
2019-02-27T04:23:01.876Z,15.20
2019-02-27T04:24:01.871Z,14.90
2019-02-27T04:25:01.872Z,14.50
2019-02-27T04:26:05.347Z,14.70
2019-02-27T04:27:01.753Z,15.70
2019-02-27T04:28:01.634Z,15.30
2019-02-27T04:29:04.794Z,15.40
2019-02-27T04:30:01.653Z,15.40
2019-02-27T04:31:01.515Z,15.30
2019-02-27T04:32:01.511Z,15.50
2019-02-27T04:33:01.392Z,14.90
2019-02-27T04:34:01.421Z,15.50
2019-02-27T04:35:01.366Z,15.30
2019-02-27T04:36:01.269Z,15.50
2019-02-27T04:37:01.273Z,14.90
2019-02-27T04:38:01.155Z,15.50
2019-02-27T04:39:02.484Z,15.90
2019-02-27T04:40:01.027Z,15.90
2019-02-27T04:41:01.038Z,16.50
2019-02-27T04:42:01.029Z,16.20
2019-02-27T04:43:00.910Z,16.00
2019-02-27T04:44:05.259Z,16.10
2019-02-27T04:45:00.787Z,15.50
2019-02-27T04:46:00.789Z,15.80
2019-02-27T04:47:00.789Z,15.10
2019-02-27T04:48:00.668Z,15.10
2019-02-27T04:49:03.921Z,14.50
2019-02-27T04:50:00.548Z,14.80
2019-02-27T04:51:00.550Z,15.70
2019-02-27T04:52:00.425Z,14.60
2019-02-27T04:53:00.426Z,15.00
2019-02-27T04:54:00.426Z,15.40
2019-02-27T04:55:00.324Z,15.20
2019-02-27T04:56:00.306Z,15.70
2019-02-27T04:57:00.186Z,15.90
2019-02-27T04:58:00.190Z,16.00
2019-02-27T04:59:00.068Z,15.80
2019-02-27T05:00:00.152Z,21.50
2019-02-27T05:01:00.070Z,23.90
2019-02-27T05:01:59.948Z,22.30
2019-02-27T05:02:59.946Z,22.40
2019-02-27T05:04:01.542Z,23.80
2019-02-27T05:04:59.828Z,24.10
2019-02-27T05:05:59.825Z,22.60
2019-02-27T05:06:59.705Z,21.90
2019-02-27T05:07:59.709Z,22.10
2019-02-27T05:09:00.214Z,22.90
2019-02-27T05:09:59.586Z,22.00
2019-02-27T05:10:59.463Z,21.70
2019-02-27T05:11:59.466Z,20.80
2019-02-27T05:12:59.468Z,21.60
2019-02-27T05:13:59.344Z,20.70
2019-02-27T05:15:00.836Z,20.70
2019-02-27T05:15:59.221Z,19.30
2019-02-27T05:16:59.723Z,17.50
2019-02-27T05:17:59.229Z,17.40
2019-02-27T05:19:03.621Z,17.30
2019-02-27T05:19:59.105Z,16.80
2019-02-27T05:20:58.980Z,16.50
2019-02-27T05:22:01.135Z,17.40
2019-02-27T05:23:00.401Z,17.10
2019-02-27T05:23:58.861Z,15.90
2019-02-27T05:24:58.858Z,15.70
2019-02-27T05:25:58.743Z,16.20
2019-02-27T05:27:00.810Z,15.10
2019-02-27T05:28:01.070Z,15.40
2019-02-27T05:28:58.620Z,15.70
2019-02-27T05:30:00.074Z,15.60
2019-02-27T05:30:58.502Z,15.90
2019-02-27T05:31:58.496Z,16.10
2019-02-27T05:33:01.780Z,16.40
2019-02-27T05:33:58.377Z,16.90
2019-02-27T05:34:58.261Z,17.20
2019-02-27T05:35:58.263Z,16.40
2019-02-27T05:36:58.258Z,16.00
2019-02-27T05:37:58.136Z,16.10
2019-02-27T05:38:58.139Z,16.80
2019-02-27T05:39:58.018Z,17.20
2019-02-27T05:41:00.115Z,16.90
2019-02-27T05:41:57.978Z,16.80
2019-02-27T05:42:57.896Z,16.90
2019-02-27T05:43:57.896Z,16.50
2019-02-27T05:44:57.778Z,17.50
2019-02-27T05:45:57.773Z,15.40
2019-02-27T05:46:57.660Z,15.80
2019-02-27T05:47:57.657Z,15.80
2019-02-27T05:48:57.658Z,16.30
2019-02-27T05:49:57.998Z,15.70
2019-02-27T05:50:57.534Z,16.50
2019-02-27T05:51:57.415Z,16.00
2019-02-27T05:52:57.411Z,16.70
2019-02-27T05:53:58.517Z,16.80
2019-02-27T05:54:57.296Z,17.00
2019-02-27T05:55:58.554Z,17.10
2019-02-27T05:56:57.172Z,15.90
2019-02-27T05:57:57.176Z,17.30
2019-02-27T05:58:57.059Z,16.10
2019-02-27T05:59:57.053Z,17.30
2019-02-27T06:00:57.050Z,17.40
2019-02-27T06:01:56.931Z,16.60
2019-02-27T06:02:56.979Z,16.30
2019-02-27T06:03:56.811Z,16.00
2019-02-27T06:04:59.067Z,15.30
2019-02-27T06:05:56.692Z,15.50
2019-02-27T06:06:56.692Z,14.60
2019-02-27T06:07:56.688Z,15.80
2019-02-27T06:08:56.567Z,14.70
2019-02-27T06:09:56.601Z,14.00
2019-02-27T06:10:56.448Z,14.70
2019-02-27T06:11:56.451Z,14.90
2019-02-27T06:12:56.447Z,15.20
2019-02-27T06:13:56.330Z,15.50
2019-02-27T06:14:56.330Z,16.80
2019-02-27T06:15:56.213Z,16.70
2019-02-27T06:16:56.212Z,17.00
2019-02-27T06:17:56.085Z,17.20
2019-02-27T06:18:56.872Z,16.10
2019-02-27T06:19:56.088Z,17.10
2019-02-27T06:20:55.981Z,17.10
2019-02-27T06:21:56.846Z,17.60
2019-02-27T06:22:55.854Z,16.90
2019-02-27T06:23:55.850Z,16.50
2019-02-27T06:24:55.809Z,16.80
2019-02-27T06:25:59.024Z,17.20
2019-02-27T06:26:55.725Z,16.30
2019-02-27T06:27:55.612Z,15.10
2019-02-27T06:28:55.615Z,16.30
2019-02-27T06:29:57.030Z,16.10
2019-02-27T06:30:55.485Z,15.90
2019-02-27T06:31:55.488Z,15.30
2019-02-27T06:32:55.364Z,16.70
2019-02-27T06:33:55.362Z,16.20
2019-02-27T06:34:59.271Z,17.10
2019-02-27T06:35:55.246Z,16.60
2019-02-27T06:36:55.206Z,16.40
2019-02-27T06:37:55.125Z,16.80
2019-02-27T06:38:55.126Z,17.70
2019-02-27T06:39:55.005Z,17.10
2019-02-27T06:40:55.001Z,17.10
2019-02-27T06:41:54.897Z,16.50
2019-02-27T06:42:56.757Z,16.20
2019-02-27T06:43:54.881Z,16.40
2019-02-27T06:44:54.763Z,16.10
2019-02-27T06:45:54.844Z,17.20
2019-02-27T06:46:54.802Z,16.40
2019-02-27T06:47:54.643Z,15.80
2019-02-27T06:48:56.416Z,15.60
2019-02-27T06:49:54.526Z,15.20
2019-02-27T06:50:54.521Z,15.80
2019-02-27T06:51:54.398Z,15.80
2019-02-27T06:52:54.402Z,15.40
2019-02-27T06:53:54.277Z,14.80
2019-02-27T06:54:54.278Z,15.10
2019-02-27T06:55:54.244Z,14.20
2019-02-27T06:56:55.241Z,15.00
2019-02-27T06:57:54.158Z,14.50
2019-02-27T06:58:54.040Z,14.40
2019-02-27T06:59:54.038Z,14.70
2019-02-27T07:00:53.925Z,14.00
2019-02-27T07:01:53.919Z,14.50
2019-02-27T07:02:55.447Z,15.40
2019-02-27T07:03:53.796Z,15.30
2019-02-27T07:04:53.797Z,16.00
2019-02-27T07:05:53.679Z,15.70
2019-02-27T07:06:55.465Z,16.00
2019-02-27T07:07:53.639Z,15.50
2019-02-27T07:08:53.555Z,16.40
2019-02-27T07:09:53.558Z,16.20
2019-02-27T07:10:57.309Z,15.90
2019-02-27T07:11:53.486Z,15.60
2019-02-27T07:12:54.694Z,15.40
2019-02-27T07:13:53.315Z,16.10
2019-02-27T07:14:53.316Z,16.30
2019-02-27T07:15:53.195Z,16.30
2019-02-27T07:16:56.948Z,15.40
2019-02-27T07:17:53.078Z,16.10
2019-02-27T07:18:53.154Z,16.80
2019-02-27T07:19:53.036Z,16.50
2019-02-27T07:20:55.588Z,17.00
2019-02-27T07:21:52.958Z,17.10
2019-02-27T07:22:52.842Z,16.50
2019-02-27T07:23:57.746Z,16.70
2019-02-27T07:24:52.715Z,17.30
2019-02-27T07:25:52.712Z,17.40
2019-02-27T07:26:52.711Z,17.30
2019-02-27T07:27:52.594Z,16.60
2019-02-27T07:28:52.593Z,17.00
2019-02-27T07:29:52.473Z,17.20
2019-02-27T07:30:52.471Z,16.50
2019-02-27T07:31:52.711Z,16.70
2019-02-27T07:32:52.350Z,15.90
2019-02-27T07:33:52.349Z,17.10
2019-02-27T07:34:52.229Z,17.50
2019-02-27T07:35:52.230Z,17.40
2019-02-27T07:36:52.111Z,16.10
2019-02-27T07:37:52.109Z,15.60
2019-02-27T07:38:54.327Z,16.30
2019-02-27T07:39:51.989Z,15.60
2019-02-27T07:40:51.987Z,16.40
2019-02-27T07:41:51.873Z,16.60
2019-02-27T07:42:51.870Z,16.10
2019-02-27T07:43:51.830Z,16.30
2019-02-27T07:44:51.747Z,17.40
2019-02-27T07:45:51.747Z,17.10
2019-02-27T07:46:57.210Z,16.90
2019-02-27T07:47:51.632Z,16.80
2019-02-27T07:48:51.505Z,17.20
2019-02-27T07:49:51.511Z,17.00
2019-02-27T07:50:51.519Z,16.00
2019-02-27T07:51:51.387Z,18.20
2019-02-27T07:52:52.183Z,17.30
2019-02-27T07:53:53.406Z,16.60
2019-02-27T07:54:51.264Z,18.60
2019-02-27T07:55:51.264Z,17.40
2019-02-27T07:56:51.146Z,18.30
2019-02-27T07:57:51.144Z,18.60
2019-02-27T07:58:51.026Z,19.50
2019-02-27T07:59:51.026Z,19.20
2019-02-27T08:00:51.028Z,18.60
2019-02-27T08:01:50.902Z,18.90
2019-02-27T08:02:50.903Z,18.10
2019-02-27T08:03:50.784Z,18.60
2019-02-27T08:04:51.679Z,19.20
2019-02-27T08:05:50.664Z,20.40
2019-02-27T08:06:50.660Z,20.20
2019-02-27T08:07:50.662Z,19.70
2019-02-27T08:08:50.540Z,19.30
2019-02-27T08:09:50.542Z,19.70
2019-02-27T08:10:50.425Z,20.20
2019-02-27T08:11:50.420Z,19.60
2019-02-27T08:12:50.420Z,21.00
2019-02-27T08:13:50.299Z,19.60
2019-02-27T08:14:50.303Z,20.80
2019-02-27T08:15:50.180Z,20.90
2019-02-27T08:16:50.178Z,19.80
2019-02-27T08:17:50.264Z,20.90
2019-02-27T08:18:50.059Z,21.00
2019-02-27T08:19:50.059Z,19.60
2019-02-27T08:20:52.091Z,20.30
2019-02-27T08:21:49.937Z,20.90
2019-02-27T08:22:49.939Z,20.10
2019-02-27T08:23:49.820Z,20.20
2019-02-27T08:24:49.820Z,19.20
2019-02-27T08:25:49.700Z,19.70
2019-02-27T08:26:49.703Z,19.30
2019-02-27T08:27:49.698Z,20.90
2019-02-27T08:28:49.578Z,20.10
2019-02-27T08:29:49.577Z,18.40
2019-02-27T08:30:49.458Z,20.30
2019-02-27T08:31:49.457Z,19.10
2019-02-27T08:32:49.465Z,19.40
2019-02-27T08:33:49.339Z,19.40
2019-02-27T08:34:49.334Z,19.50
2019-02-27T08:35:49.216Z,20.20
2019-02-27T08:36:49.214Z,20.20
2019-02-27T08:37:49.220Z,20.30
2019-02-27T08:38:49.095Z,21.20
2019-02-27T08:39:49.099Z,20.10
2019-02-27T08:40:48.976Z,19.20
2019-02-27T08:41:48.974Z,18.60
2019-02-27T08:42:48.975Z,16.60
2019-02-27T08:43:48.860Z,17.30
2019-02-27T08:44:48.875Z,17.70
2019-02-27T08:45:48.731Z,17.40
2019-02-27T08:46:48.733Z,17.00
2019-02-27T08:47:48.747Z,17.70
2019-02-27T08:48:50.117Z,16.40
2019-02-27T08:49:48.616Z,15.70
2019-02-27T08:50:48.491Z,16.10
2019-02-27T08:51:48.497Z,15.90
2019-02-27T08:52:51.575Z,16.10
2019-02-27T08:53:48.370Z,14.80
2019-02-27T08:54:48.374Z,15.20
2019-02-27T08:55:48.377Z,14.50
2019-02-27T08:56:48.250Z,15.00
2019-02-27T08:57:49.924Z,13.20
2019-02-27T08:58:48.133Z,13.70
2019-02-27T08:59:48.129Z,12.80
2019-02-27T09:00:48.150Z,13.00
2019-02-27T09:01:48.007Z,12.50
2019-02-27T09:02:48.011Z,12.00
2019-02-27T09:03:47.891Z,11.80
2019-02-27T09:04:47.887Z,11.30
2019-02-27T09:05:47.892Z,11.10
2019-02-27T09:06:47.778Z,11.80
2019-02-27T09:07:47.770Z,11.20
2019-02-27T09:08:47.646Z,11.10
2019-02-27T09:09:51.207Z,10.10
2019-02-27T09:10:47.650Z,10.20
2019-02-27T09:11:47.529Z,10.30
2019-02-27T09:12:48.864Z,9.90
2019-02-27T09:13:47.489Z,10.40
2019-02-27T09:14:47.406Z,10.10
2019-02-27T09:15:47.415Z,10.30
2019-02-27T09:16:47.288Z,9.60
2019-02-27T09:17:47.285Z,9.60
2019-02-27T09:18:47.289Z,9.50
2019-02-27T09:19:47.166Z,8.90
2019-02-27T09:20:47.173Z,9.00
2019-02-27T09:21:47.043Z,9.10
2019-02-27T09:22:47.046Z,9.50
2019-02-27T09:23:47.046Z,9.70
2019-02-27T09:24:46.924Z,9.10
2019-02-27T09:25:46.923Z,9.20
2019-02-27T09:26:46.918Z,8.80
2019-02-27T09:27:46.811Z,9.20
2019-02-27T09:28:46.805Z,9.40
2019-02-27T09:29:46.685Z,8.90
2019-02-27T09:30:46.683Z,9.10
2019-02-27T09:31:50.851Z,8.60
2019-02-27T09:32:46.772Z,8.40
2019-02-27T09:33:46.561Z,8.90
2019-02-27T09:34:46.525Z,8.10
2019-02-27T09:35:46.448Z,8.90
2019-02-27T09:36:46.444Z,8.60
2019-02-27T09:37:48.457Z,8.70
2019-02-27T09:38:46.319Z,9.10
2019-02-27T09:39:46.325Z,9.40
2019-02-27T09:40:46.206Z,8.70
2019-02-27T09:41:47.063Z,8.50
2019-02-27T09:42:46.080Z,8.70
2019-02-27T09:43:46.079Z,9.60
2019-02-27T09:44:46.079Z,9.50
2019-02-27T09:45:47.113Z,8.90
2019-02-27T09:46:45.961Z,9.50
2019-02-27T09:47:45.960Z,9.80
2019-02-27T09:48:45.837Z,9.50
2019-02-27T09:49:45.847Z,9.00
2019-02-27T09:50:48.351Z,7.80
2019-02-27T09:51:45.718Z,7.80
2019-02-27T09:52:45.722Z,7.20
2019-02-27T09:53:45.604Z,8.00
2019-02-27T09:54:46.956Z,7.50
2019-02-27T09:55:45.602Z,7.40
2019-02-27T09:56:45.481Z,7.30
2019-02-27T09:57:45.478Z,8.00
2019-02-27T09:58:46.246Z,8.00
2019-02-27T09:59:45.356Z,7.80
2019-02-27T10:00:45.362Z,8.40
2019-02-27T10:01:45.235Z,7.80
2019-02-27T10:02:46.309Z,7.50
2019-02-27T10:03:45.242Z,7.60
2019-02-27T10:04:45.115Z,8.00
2019-02-27T10:05:45.116Z,8.20
2019-02-27T10:06:45.114Z,7.80
2019-02-27T10:07:44.999Z,7.80
2019-02-27T10:08:44.995Z,7.60
2019-02-27T10:09:44.879Z,7.50
2019-02-27T10:10:45.925Z,7.00
2019-02-27T10:11:44.873Z,6.90
2019-02-27T10:12:44.757Z,7.10
2019-02-27T10:13:44.760Z,7.40
2019-02-27T10:14:44.758Z,7.10
2019-02-27T10:15:44.635Z,7.60
2019-02-27T10:16:44.652Z,7.10
2019-02-27T10:17:44.631Z,6.70
2019-02-27T10:18:44.515Z,7.20
2019-02-27T10:19:44.512Z,7.40
2019-02-27T10:20:44.398Z,7.10
2019-02-27T10:21:45.258Z,7.40
2019-02-27T10:22:44.390Z,7.30
2019-02-27T10:23:44.271Z,7.50
2019-02-27T10:24:44.271Z,6.80
2019-02-27T10:25:44.270Z,6.90
2019-02-27T10:26:44.150Z,7.40
2019-02-27T10:27:44.153Z,7.00
2019-02-27T10:28:44.141Z,6.50
2019-02-27T10:29:47.603Z,7.30
2019-02-27T10:30:44.230Z,7.10
2019-02-27T10:31:43.910Z,7.10
2019-02-27T10:32:43.908Z,7.40
2019-02-27T10:33:43.911Z,7.40
2019-02-27T10:34:43.789Z,7.30
2019-02-27T10:35:43.787Z,6.80
2019-02-27T10:36:43.789Z,7.50
2019-02-27T10:37:43.709Z,6.90
2019-02-27T10:38:45.437Z,7.30
2019-02-27T10:39:43.668Z,6.70
2019-02-27T10:40:45.989Z,6.50
2019-02-27T10:41:44.902Z,6.60
2019-02-27T10:42:43.425Z,7.00
2019-02-27T10:43:43.433Z,7.00
2019-02-27T10:44:43.428Z,6.90
2019-02-27T10:45:48.241Z,6.90
2019-02-27T10:46:43.307Z,7.10
2019-02-27T10:47:43.306Z,7.70
2019-02-27T10:48:43.186Z,7.20
2019-02-27T10:49:43.183Z,7.50
2019-02-27T10:50:43.147Z,7.00
2019-02-27T10:51:43.745Z,6.60
2019-02-27T10:52:43.063Z,6.60
2019-02-27T10:53:42.957Z,6.20
2019-02-27T10:54:42.944Z,6.10
2019-02-27T10:55:42.943Z,6.40
2019-02-27T10:56:42.827Z,6.50
2019-02-27T10:57:42.825Z,6.20
2019-02-27T10:58:44.996Z,6.30
2019-02-27T10:59:42.702Z,6.60
2019-02-27T11:00:42.710Z,6.20
2019-02-27T11:01:42.701Z,6.40
2019-02-27T11:02:45.120Z,6.10
2019-02-27T11:03:42.582Z,6.20
2019-02-27T11:04:42.462Z,6.60
2019-02-27T11:05:42.462Z,7.30
2019-02-27T11:06:42.460Z,6.80
2019-02-27T11:07:42.339Z,6.80
2019-02-27T11:08:42.341Z,6.60
2019-02-27T11:09:42.340Z,6.30
2019-02-27T11:10:42.223Z,6.60
2019-02-27T11:11:42.220Z,6.60
2019-02-27T11:12:42.222Z,6.70
2019-02-27T11:13:42.119Z,6.80
2019-02-27T11:14:42.104Z,6.80
2019-02-27T11:15:44.043Z,6.00
2019-02-27T11:16:41.978Z,6.50
2019-02-27T11:17:41.985Z,6.70
2019-02-27T11:18:42.786Z,6.00
2019-02-27T11:19:41.857Z,6.20
2019-02-27T11:20:41.859Z,6.40
2019-02-27T11:21:41.740Z,6.50
2019-02-27T11:22:41.737Z,6.20
2019-02-27T11:23:41.816Z,6.50
2019-02-27T11:24:41.621Z,6.20
2019-02-27T11:25:41.614Z,5.90
2019-02-27T11:26:41.615Z,6.20
2019-02-27T11:27:41.496Z,6.10
2019-02-27T11:28:47.168Z,6.30
2019-02-27T11:29:41.379Z,6.00
2019-02-27T11:30:41.377Z,5.80
2019-02-27T11:31:42.334Z,5.60
2019-02-27T11:32:41.256Z,5.60
2019-02-27T11:33:41.253Z,5.90
2019-02-27T11:34:41.254Z,5.90
2019-02-27T11:35:41.132Z,6.00
2019-02-27T11:36:41.132Z,6.00
2019-02-27T11:37:41.136Z,6.10
2019-02-27T11:38:41.017Z,5.70
2019-02-27T11:39:41.021Z,5.60
2019-02-27T11:40:42.616Z,6.20
2019-02-27T11:41:40.895Z,5.70
2019-02-27T11:42:40.896Z,5.70
2019-02-27T11:43:41.456Z,5.90
2019-02-27T11:44:40.806Z,6.00
2019-02-27T11:45:40.772Z,6.20
2019-02-27T11:46:40.657Z,6.00
2019-02-27T11:47:45.099Z,6.30
2019-02-27T11:48:40.664Z,5.60
2019-02-27T11:49:40.533Z,5.70
2019-02-27T11:50:40.530Z,4.60
2019-02-27T11:51:40.530Z,4.20
2019-02-27T11:52:48.580Z,3.90
2019-02-27T11:53:40.408Z,4.40
2019-02-27T11:54:43.127Z,4.20
2019-02-27T11:55:40.289Z,4.50
2019-02-27T11:56:40.303Z,4.50
2019-02-27T11:57:40.170Z,4.20
2019-02-27T11:58:40.171Z,4.90
2019-02-27T11:59:40.169Z,5.30
2019-02-27T12:00:40.049Z,5.10
2019-02-27T12:02:40.050Z,5.30
2019-02-27T12:03:39.929Z,5.20
2019-02-27T12:04:39.930Z,5.20
2019-02-27T12:05:39.927Z,5.00
2019-02-27T12:06:41.596Z,4.20
2019-02-27T12:07:39.814Z,4.50
2019-02-27T12:08:39.805Z,3.90
2019-02-27T12:09:39.686Z,4.30
2019-02-27T12:10:39.685Z,4.40
2019-02-27T12:11:39.648Z,4.70
2019-02-27T12:12:39.563Z,4.30
2019-02-27T12:13:39.570Z,4.50
2019-02-27T12:14:39.444Z,5.20
2019-02-27T12:15:43.360Z,5.80
2019-02-27T12:16:39.444Z,5.00
2019-02-27T12:17:39.325Z,4.80
2019-02-27T12:18:39.324Z,5.10
2019-02-27T12:19:42.094Z,5.30
2019-02-27T12:20:39.204Z,5.70
2019-02-27T12:21:39.201Z,4.80
2019-02-27T12:22:39.201Z,5.20
2019-02-27T12:23:41.227Z,5.60
2019-02-27T12:24:39.081Z,5.20
2019-02-27T12:25:39.086Z,5.10
2019-02-27T12:26:38.970Z,4.80
2019-02-27T12:27:48.938Z,4.60
2019-02-27T12:28:38.961Z,4.70
2019-02-27T12:29:38.846Z,4.90
2019-02-27T12:30:38.840Z,4.70
2019-02-27T12:31:38.843Z,5.80
2019-02-27T12:32:38.721Z,4.60
2019-02-27T12:33:38.720Z,4.90
2019-02-27T12:34:38.602Z,5.20
2019-02-27T12:35:38.601Z,5.20
2019-02-27T12:36:38.601Z,5.10
2019-02-27T12:37:38.481Z,5.10
2019-02-27T12:38:39.284Z,4.40
2019-02-27T12:39:38.480Z,5.00
2019-02-27T12:40:38.367Z,5.10
2019-02-27T12:41:38.360Z,5.00
2019-02-27T12:42:42.522Z,5.00
2019-02-27T12:43:38.244Z,5.00
2019-02-27T12:44:38.238Z,5.50
2019-02-27T12:45:38.239Z,5.30
2019-02-27T12:46:38.116Z,5.50
2019-02-27T12:47:40.638Z,5.70
2019-02-27T12:48:38.131Z,5.10
2019-02-27T12:49:37.996Z,5.50
2019-02-27T12:50:37.996Z,5.40
2019-02-27T12:51:38.346Z,5.50
2019-02-27T12:52:37.876Z,5.40
2019-02-27T12:53:37.882Z,5.80
2019-02-27T12:54:37.873Z,5.20
2019-02-27T12:55:37.755Z,5.50
2019-02-27T12:56:41.557Z,5.60
2019-02-27T12:57:37.758Z,5.60
2019-02-27T12:58:37.637Z,5.60
2019-02-27T12:59:37.635Z,5.90